Time;durP1;ratioP1;P1;durP2;ratioP2;P2;SDS_P1;SDS_P2;PMS_P1;PMS_P2;Temp;Humidity;BMP_temperature;BMP_pressure;BME280_temperature;BME280_humidity;BME280_pressure;Samples;Min_cycle;Max_cycle;Signal;HPM_P1;HPM_P2
2023/04/08 00:00:25;;;;;;;19.50;11.73;;;;;;;4.76;72.39;100725.88;4232850;28;20673;-65
2023/04/08 00:02:52;;;;;;;23.67;13.20;;;;;;;4.79;72.40;100725.69;4220511;28;20422;-67
2023/04/08 00:05:19;;;;;;;20.67;12.20;;;;;;;4.84;72.39;100726.22;4226498;28;21841;-66
2023/04/08 00:07:45;;;;;;;22.47;12.50;;;;;;;4.74;72.52;100728.69;4221152;28;22015;-65
2023/04/08 00:10:12;;;;;;;24.27;13.57;;;;;;;4.78;72.25;100726.66;4217997;28;20617;-67
2023/04/08 00:12:38;;;;;;;23.50;14.00;;;;;;;4.75;71.97;100722.34;4202191;28;21675;-65
2023/04/08 00:15:05;;;;;;;29.27;13.53;;;;;;;4.82;71.76;100730.00;4226618;28;20255;-66
2023/04/08 00:17:32;;;;;;;24.37;13.97;;;;;;;4.71;72.15;100730.72;4222361;28;21028;-64
2023/04/08 00:19:59;;;;;;;23.93;14.10;;;;;;;4.70;71.96;100728.97;4225327;28;20242;-65
2023/04/08 00:22:25;;;;;;;24.67;14.00;;;;;;;4.64;71.90;100722.22;4220115;28;20251;-66
2023/04/08 00:24:52;;;;;;;25.33;14.87;;;;;;;4.71;72.19;100736.06;4212374;28;20597;-66
2023/04/08 00:27:19;;;;;;;26.53;14.17;;;;;;;4.66;72.33;100730.16;4207317;28;21169;-65
2023/04/08 00:29:45;;;;;;;22.23;12.67;;;;;;;4.70;72.06;100739.72;4224359;28;20909;-65
2023/04/08 00:32:12;;;;;;;24.03;12.67;;;;;;;4.73;72.21;100737.69;4233249;28;20347;-67
2023/04/08 00:34:39;;;;;;;22.43;13.07;;;;;;;4.69;72.41;100735.31;4213483;28;20622;-67
2023/04/08 00:37:05;;;;;;;23.10;12.87;;;;;;;4.72;72.23;100735.97;4228172;28;20243;-66
2023/04/08 00:39:32;;;;;;;21.93;12.10;;;;;;;4.70;72.26;100727.19;4230838;28;21187;-65
2023/04/08 00:42:00;;;;;;;22.20;11.90;;;;;;;4.72;72.26;100735.13;4224206;28;20540;-63
2023/04/08 00:44:28;;;;;;;17.53;10.87;;;;;;;4.78;72.26;100747.25;4222247;28;20633;-65
2023/04/08 00:46:54;;;;;;;19.73;10.53;;;;;;;4.68;72.21;100738.97;4204598;28;21182;-67
2023/04/08 00:49:21;;;;;;;17.93;10.90;;;;;;;4.70;71.97;100748.63;4224970;28;20891;-65
2023/04/08 00:51:47;;;;;;;17.17;10.53;;;;;;;4.69;72.53;100738.88;4220721;28;25247;-66
2023/04/08 00:54:14;;;;;;;18.90;10.83;;;;;;;4.69;72.50;100748.72;4230397;28;20318;-66
2023/04/08 00:56:42;;;;;;;16.97;10.53;;;;;;;4.75;72.10;100742.97;4219813;28;20247;-67
2023/04/08 00:59:09;;;;;;;19.20;11.20;;;;;;;4.74;72.70;100750.13;4203833;28;20243;-67
2023/04/08 01:01:56;;;;;;;18.83;11.20;;;;;;;4.67;72.35;100747.97;4227914;28;20449;-65
2023/04/08 01:04:34;;;;;;;19.53;10.83;;;;;;;4.73;72.10;100758.28;4231775;28;20252;-65
2023/04/08 01:07:36;;;;;;;16.77;10.17;;;;;;;4.63;71.94;100755.38;4218820;28;20346;-66
2023/04/08 01:10:18;;;;;;;16.70;9.83;;;;;;;4.61;71.81;100754.59;4238273;28;20397;-63
2023/04/08 01:12:54;;;;;;;20.27;11.07;;;;;;;4.61;72.30;100759.97;4199171;28;20290;-67
2023/04/08 01:15:21;;;;;;;18.03;10.63;;;;;;;4.65;72.28;100760.63;4229024;28;20272;-67
2023/04/08 01:17:49;;;;;;;18.17;10.37;;;;;;;4.65;71.89;100764.16;4206532;28;20426;-65
2023/04/08 01:20:18;;;;;;;16.77;10.40;;;;;;;4.63;72.28;100759.84;4216547;28;21120;-66
2023/04/08 01:22:59;;;;;;;19.57;11.13;;;;;;;4.52;72.34;100757.88;4221926;28;20250;-67
2023/04/08 01:25:32;;;;;;;16.57;10.53;;;;;;;4.59;71.78;100760.06;4218362;28;22937;-69
2023/04/08 01:28:02;;;;;;;17.37;10.03;;;;;;;4.57;72.31;100761.97;4218504;28;20444;-67
2023/04/08 01:30:30;;;;;;;17.00;10.40;;;;;;;4.58;71.94;100761.03;4234316;28;20393;-66
2023/04/08 01:32:58;;;;;;;17.80;10.80;;;;;;;4.47;72.47;100768.06;4217343;28;20303;-65
2023/04/08 01:35:25;;;;;;;19.23;11.20;;;;;;;4.41;72.83;100770.19;4221676;28;21253;-65
2023/04/08 01:37:52;;;;;;;18.37;11.30;;;;;;;4.28;72.93;100769.22;4193017;28;20278;-65
2023/04/08 01:40:19;;;;;;;19.63;11.10;;;;;;;4.26;73.10;100766.66;4225485;28;21879;-67
2023/04/08 01:42:47;;;;;;;20.10;11.03;;;;;;;4.25;73.53;100772.13;4237402;28;20414;-66
2023/04/08 01:45:15;;;;;;;21.97;11.50;;;;;;;4.16;73.46;100764.66;4222152;28;22749;-67
2023/04/08 01:47:46;;;;;;;22.57;12.10;;;;;;;4.15;73.67;100766.50;4239672;28;20236;-66
2023/04/08 01:50:14;;;;;;;21.07;11.70;;;;;;;4.09;74.00;100770.41;4222146;28;21786;-67
2023/04/08 01:52:43;;;;;;;19.87;11.47;;;;;;;4.06;74.11;100770.59;4226746;28;20661;-66
2023/04/08 01:55:10;;;;;;;21.93;11.57;;;;;;;4.03;74.29;100768.13;4235160;28;23628;-68
2023/04/08 01:57:37;;;;;;;18.70;11.43;;;;;;;4.10;73.90;100764.09;4233188;28;20344;-66
2023/04/08 02:00:07;;;;;;;18.70;10.93;;;;;;;4.07;74.06;100769.66;4236255;28;20433;-65
2023/04/08 02:02:35;;;;;;;21.23;11.50;;;;;;;3.98;74.37;100772.91;4232921;28;20869;-66
2023/04/08 02:05:03;;;;;;;21.27;11.10;;;;;;;3.88;74.97;100777.13;4233548;28;20230;-64
2023/04/08 02:07:30;;;;;;;20.10;11.73;;;;;;;3.80;75.22;100791.88;4220938;28;26329;-67
2023/04/08 02:09:57;;;;;;;20.43;11.80;;;;;;;3.79;75.30;100792.81;4231025;28;20238;-66
2023/04/08 02:12:25;;;;;;;20.17;11.00;;;;;;;3.73;75.47;100787.84;4237478;28;20971;-65
2023/04/08 02:14:52;;;;;;;23.50;12.63;;;;;;;3.69;75.65;100793.47;4212011;28;20239;-68
2023/04/08 02:17:40;;;;;;;22.70;12.70;;;;;;;3.70;75.76;100792.53;4234450;28;21520;-67
2023/04/08 02:20:17;;;;;;;21.40;12.30;;;;;;;3.70;75.77;100803.22;4209764;28;20708;-65
2023/04/08 02:22:49;;;;;;;21.60;11.83;;;;;;;3.67;75.61;100800.72;4223465;28;20430;-66
2023/04/08 02:25:19;;;;;;;19.00;11.10;;;;;;;3.59;75.82;100806.53;4228419;28;20231;-65
2023/04/08 02:27:48;;;;;;;19.90;11.63;;;;;;;3.49;76.24;100800.88;4227477;28;20243;-65
2023/04/08 02:30:15;;;;;;;20.23;11.47;;;;;;;3.54;75.68;100793.47;4213630;28;21070;-66
2023/04/08 02:32:42;;;;;;;19.57;10.97;;;;;;;3.48;75.87;100796.47;4228058;28;20233;-63
2023/04/08 02:35:10;;;;;;;21.07;11.70;;;;;;;3.47;76.13;100801.00;4209902;28;20321;-68
2023/04/08 02:37:37;;;;;;;21.20;12.27;;;;;;;3.44;75.92;100808.34;4221999;28;25585;-65
2023/04/08 02:40:04;;;;;;;21.53;12.57;;;;;;;3.39;76.24;100800.59;4228912;28;20650;-65
2023/04/08 02:42:31;;;;;;;20.77;12.53;;;;;;;3.33;76.59;100811.66;4216579;28;21182;-66
2023/04/08 02:44:57;;;;;;;21.83;11.70;;;;;;;3.30;76.78;100804.69;4230266;28;21005;-65
2023/04/08 02:47:24;;;;;;;21.63;12.37;;;;;;;3.25;76.76;100811.25;4218165;28;20309;-66
2023/04/08 02:49:52;;;;;;;24.93;13.27;;;;;;;3.25;77.09;100819.28;4223614;28;20253;-67
2023/04/08 02:52:19;;;;;;;23.47;12.13;;;;;;;3.18;76.90;100824.13;4227186;28;22118;-65
2023/04/08 02:54:45;;;;;;;21.33;12.53;;;;;;;3.10;76.95;100827.25;4227444;28;20521;-65
2023/04/08 02:57:12;;;;;;;25.57;13.20;;;;;;;3.14;77.27;100827.94;4224876;28;20241;-65
2023/04/08 02:59:39;;;;;;;21.90;12.63;;;;;;;3.07;77.30;100832.78;4227682;28;20232;-65
2023/04/08 03:02:06;;;;;;;22.77;13.07;;;;;;;3.06;77.08;100832.88;4222361;28;23439;-64
2023/04/08 03:04:32;;;;;;;26.07;14.30;;;;;;;2.90;77.98;100851.63;4209626;28;20272;-67
2023/04/08 03:06:59;;;;;;;36.23;20.20;;;;;;;2.75;78.92;100848.00;4224110;28;20231;-67
2023/04/08 03:09:26;;;;;;;24.30;13.60;;;;;;;2.72;78.76;100848.19;4223824;28;22411;-65
2023/04/08 03:11:53;;;;;;;23.30;13.27;;;;;;;2.75;78.76;100853.34;4224321;28;20291;-66
2023/04/08 03:14:20;;;;;;;24.37;13.33;;;;;;;2.69;78.96;100852.75;4221816;28;20239;-64
2023/04/08 03:16:47;;;;;;;24.77;13.97;;;;;;;2.65;79.05;100853.00;4223474;28;20233;-65
2023/04/08 03:19:14;;;;;;;22.40;12.63;;;;;;;2.68;78.51;100858.19;4219139;28;20405;-64
2023/04/08 03:21:41;;;;;;;26.27;13.43;;;;;;;2.58;78.82;100860.50;4219556;28;20239;-64
2023/04/08 03:24:07;;;;;;;27.10;14.07;;;;;;;2.48;79.45;100861.97;4206860;28;20334;-66
2023/04/08 03:26:34;;;;;;;23.10;12.87;;;;;;;2.58;79.41;100860.50;4229802;28;21639;-65
2023/04/08 03:29:01;;;;;;;25.87;13.83;;;;;;;2.64;78.86;100864.66;4223546;28;20609;-67
2023/04/08 03:31:28;;;;;;;24.40;12.60;;;;;;;2.52;79.17;100863.53;4221871;28;20303;-64
2023/04/08 03:33:55;;;;;;;26.37;13.50;;;;;;;2.50;79.97;100865.41;4228021;28;20293;-67
2023/04/08 03:36:21;;;;;;;23.53;12.90;;;;;;;2.47;79.70;100863.78;4229651;28;20235;-67
2023/04/08 03:38:48;;;;;;;21.80;11.87;;;;;;;2.51;79.30;100865.34;4222485;28;22534;-65
2023/04/08 03:41:15;;;;;;;26.07;13.13;;;;;;;2.40;79.73;100869.56;4231757;28;21168;-65
2023/04/08 03:43:41;;;;;;;25.80;13.30;;;;;;;2.19;81.18;100875.97;4228552;28;20352;-65
2023/04/08 03:46:08;;;;;;;25.77;13.03;;;;;;;2.06;81.81;100872.25;4212569;28;20228;-66
2023/04/08 03:48:35;;;;;;;24.53;13.33;;;;;;;2.18;81.17;100882.25;4225500;28;22907;-64
2023/04/08 03:51:01;;;;;;;22.83;12.63;;;;;;;2.23;80.97;100874.00;4228110;28;20438;-65
2023/04/08 03:53:28;;;;;;;24.40;13.20;;;;;;;2.11;81.69;100877.34;4215451;28;21615;-66
2023/04/08 03:55:55;;;;;;;26.43;14.10;;;;;;;2.02;82.04;100879.56;4223572;28;20657;-68
2023/04/08 03:58:22;;;;;;;26.13;13.80;;;;;;;1.94;82.37;100875.53;4219903;28;20612;-66
2023/04/08 04:00:49;;;;;;;26.83;13.40;;;;;;;1.88;82.42;100872.25;4220152;28;20239;-66
2023/04/08 04:03:16;;;;;;;24.90;13.10;;;;;;;1.90;82.74;100880.19;4219869;28;20297;-65
2023/04/08 04:05:42;;;;;;;30.20;13.57;;;;;;;1.89;82.66;100879.34;4225855;28;20305;-66
2023/04/08 04:08:09;;;;;;;26.00;13.27;;;;;;;1.82;82.92;100875.25;4221192;28;20280;-67
2023/04/08 04:10:35;;;;;;;31.10;14.53;;;;;;;1.82;82.68;100877.94;4233748;28;21831;-66
2023/04/08 04:13:04;;;;;;;29.33;14.27;;;;;;;1.81;83.12;100886.88;4227979;28;22363;-65
2023/04/08 04:15:31;;;;;;;30.77;14.40;;;;;;;1.79;83.32;100887.91;4237327;28;21687;-67
2023/04/08 04:17:58;;;;;;;27.23;14.43;;;;;;;1.83;83.32;100884.13;4242524;28;21468;-65
2023/04/08 04:20:25;;;;;;;28.13;14.37;;;;;;;1.83;83.21;100881.44;4271464;28;23137;-65
2023/04/08 04:22:52;;;;;;;31.60;14.87;;;;;;;1.85;83.09;100896.44;4248854;28;20337;-65
2023/04/08 04:25:18;;;;;;;32.30;14.00;;;;;;;2.12;82.34;100897.72;4238701;28;20832;-66
2023/04/08 04:27:46;;;;;;;27.07;13.27;;;;;;;2.13;82.59;100894.13;4234259;28;20620;-65
2023/04/08 04:30:15;;;;;;;27.17;13.90;;;;;;;2.19;81.76;100900.00;4226754;28;20227;-69
2023/04/08 04:32:42;;;;;;;25.60;13.63;;;;;;;2.39;81.40;100906.06;4221583;28;21618;-66
2023/04/08 04:35:10;;;;;;;26.47;13.43;;;;;;;2.47;80.63;100908.34;4236697;28;20448;-66
2023/04/08 04:37:36;;;;;;;24.00;13.13;;;;;;;2.42;81.01;100915.75;4233824;28;21179;-65
2023/04/08 04:40:04;;;;;;;27.60;13.40;;;;;;;2.46;80.63;100914.63;4242677;28;20268;-65
2023/04/08 04:42:31;;;;;;;26.63;13.73;;;;;;;2.46;80.73;100918.16;4224971;28;20238;-65
2023/04/08 04:44:58;;;;;;;24.73;12.70;;;;;;;2.50;80.38;100921.53;4232074;28;20246;-65
2023/04/08 04:47:25;;;;;;;23.83;12.77;;;;;;;2.37;80.97;100918.69;4232540;28;20723;-67
2023/04/08 04:49:51;;;;;;;25.57;13.17;;;;;;;2.38;80.88;100931.06;4237298;28;20254;-67
2023/04/08 04:52:18;;;;;;;29.50;13.87;;;;;;;2.42;80.98;100929.13;4236983;28;20237;-64
2023/04/08 04:54:45;;;;;;;25.83;13.80;;;;;;;2.54;80.90;100928.44;4225219;28;20781;-64
2023/04/08 04:57:11;;;;;;;28.00;14.53;;;;;;;2.52;80.64;100935.69;4224117;28;20235;-67
2023/04/08 04:59:38;;;;;;;25.77;13.77;;;;;;;2.57;80.38;100935.44;4217478;28;20306;-65
2023/04/08 05:02:05;;;;;;;23.57;13.07;;;;;;;2.64;79.93;100936.81;4198737;28;20273;-65
2023/04/08 05:04:31;;;;;;;31.67;14.37;;;;;;;2.72;79.81;100934.59;4217026;28;20235;-66
2023/04/08 05:06:59;;;;;;;27.50;13.93;;;;;;;2.92;78.87;100941.50;4227652;28;20415;-65
2023/04/08 05:09:25;;;;;;;28.03;13.50;;;;;;;3.04;78.23;100939.97;4220165;28;20450;-64
2023/04/08 05:11:52;;;;;;;23.17;12.23;;;;;;;3.20;77.83;100939.09;4231688;28;20230;-65
2023/04/08 05:14:19;;;;;;;26.63;12.87;;;;;;;3.25;77.39;100945.03;4225174;28;20800;-66
2023/04/08 05:16:46;;;;;;;23.97;12.57;;;;;;;3.02;77.75;100928.47;4232004;28;20302;-65
2023/04/08 05:19:12;;;;;;;29.87;13.90;;;;;;;3.12;77.34;100936.84;4235059;28;20559;-65
2023/04/08 05:21:39;;;;;;;24.00;12.23;;;;;;;3.25;77.31;100940.53;4219690;28;20239;-65
2023/04/08 05:24:05;;;;;;;23.20;11.97;;;;;;;3.21;77.34;100948.84;4232206;28;20259;-65
2023/04/08 05:26:32;;;;;;;25.67;12.30;;;;;;;3.32;77.08;100949.94;4234542;28;20690;-66
2023/04/08 05:28:58;;;;;;;24.43;11.60;;;;;;;3.36;76.64;100950.63;4207184;28;21898;-65
2023/04/08 05:31:25;;;;;;;23.00;11.93;;;;;;;3.40;76.12;100952.19;4221499;28;21092;-65
2023/04/08 05:33:52;;;;;;;20.70;11.03;;;;;;;3.51;76.10;100948.88;4228667;28;22883;-68
2023/04/08 05:36:19;;;;;;;24.37;12.20;;;;;;;3.58;75.45;100955.59;4225630;28;20629;-68
2023/04/08 05:38:45;;;;;;;26.47;11.93;;;;;;;3.75;75.32;100946.56;4210788;28;20609;-68
2023/04/08 05:41:12;;;;;;;21.53;11.73;;;;;;;3.72;74.92;100951.25;4217845;28;20441;-69
2023/04/08 05:43:38;;;;;;;21.27;11.37;;;;;;;3.84;74.82;100955.03;4225673;28;20325;-67
2023/04/08 05:46:06;;;;;;;21.00;11.20;;;;;;;3.95;74.57;100947.22;4228326;28;20595;-67
2023/04/08 05:48:33;;;;;;;17.20;10.13;;;;;;;4.27;73.09;100955.97;4222673;28;20231;-65
2023/04/08 05:51:00;;;;;;;18.67;10.07;;;;;;;4.38;72.42;100952.63;4220999;28;20398;-67
2023/04/08 05:53:27;;;;;;;19.70;10.57;;;;;;;4.37;72.06;100950.91;4248151;28;20260;-67
2023/04/08 05:55:53;;;;;;;19.63;11.10;;;;;;;4.35;72.08;100958.19;4229935;28;21529;-66
2023/04/08 05:58:20;;;;;;;20.63;10.33;;;;;;;4.43;72.17;100957.72;4232766;28;21503;-64
2023/04/08 06:00:46;;;;;;;18.80;10.60;;;;;;;4.60;71.28;100962.03;4217263;28;20238;-65
2023/04/08 06:03:13;;;;;;;18.03;9.73;;;;;;;4.71;71.04;100967.59;4225651;28;20263;-65
2023/04/08 06:05:41;;;;;;;22.10;10.40;;;;;;;4.80;70.49;100971.50;4238793;28;20265;-65
2023/04/08 06:08:08;;;;;;;16.83;9.83;;;;;;;4.93;70.16;100979.66;4210291;28;20250;-66
2023/04/08 06:10:35;;;;;;;17.33;9.90;;;;;;;5.00;69.99;100975.59;4247527;28;22885;-66
2023/04/08 06:13:01;;;;;;;18.30;9.50;;;;;;;5.03;69.73;100974.53;4244888;28;20234;-64
2023/04/08 06:15:29;;;;;;;18.20;9.50;;;;;;;5.36;68.40;100978.69;4228779;28;20522;-65
2023/04/08 06:17:55;;;;;;;16.07;9.33;;;;;;;5.35;67.19;100972.44;4223553;28;20306;-65
2023/04/08 06:20:22;;;;;;;17.77;9.40;;;;;;;5.38;67.76;100971.38;4217137;28;20864;-65
2023/04/08 06:22:49;;;;;;;16.53;9.10;;;;;;;5.46;67.15;100965.53;4221984;28;20846;-66
2023/04/08 06:25:16;;;;;;;15.93;8.83;;;;;;;5.52;66.70;100968.66;4220310;28;20549;-67
2023/04/08 06:27:42;;;;;;;16.40;8.60;;;;;;;5.64;66.53;100971.50;4230986;28;20223;-67
2023/04/08 06:30:09;;;;;;;16.77;8.97;;;;;;;5.65;66.49;100979.44;4223481;28;20757;-66
2023/04/08 06:32:36;;;;;;;17.13;9.40;;;;;;;5.79;65.75;100980.34;4222316;28;21725;-66
2023/04/08 06:35:03;;;;;;;17.77;9.10;;;;;;;5.70;65.79;100971.94;4213562;28;20303;-65
2023/04/08 06:37:30;;;;;;;26.63;13.90;;;;;;;5.82;65.73;100985.53;4235795;28;20235;-68
2023/04/08 06:39:56;;;;;;;14.77;8.77;;;;;;;5.85;65.34;100982.63;4233684;28;20339;-68
2023/04/08 06:42:23;;;;;;;15.40;9.13;;;;;;;6.09;64.77;100984.63;4269633;28;20323;-67
2023/04/08 06:44:50;;;;;;;14.27;8.33;;;;;;;6.13;65.37;100986.16;4238465;28;22974;-67
2023/04/08 06:47:16;;;;;;;16.33;9.10;;;;;;;6.35;63.76;100980.16;4209202;28;22561;-67
2023/04/08 06:49:43;;;;;;;15.60;8.30;;;;;;;6.43;63.10;100985.00;4225565;28;20293;-68
2023/04/08 06:52:10;;;;;;;14.67;8.50;;;;;;;6.52;62.56;100978.09;4246163;28;21129;-66
2023/04/08 06:54:40;;;;;;;16.17;8.80;;;;;;;6.61;62.71;100981.00;4215093;28;20321;-69
2023/04/08 06:57:07;;;;;;;13.47;7.93;;;;;;;6.87;61.83;100983.69;4217768;28;20230;-67
2023/04/08 06:59:33;;;;;;;14.53;8.63;;;;;;;7.87;59.09;100988.06;4232922;28;22291;-67
2023/04/08 07:02:00;;;;;;;11.67;7.50;;;;;;;9.75;52.37;100988.53;4242986;28;21175;-68
2023/04/08 07:04:28;;;;;;;11.73;7.07;;;;;;;11.35;49.52;100993.75;4222185;28;20569;-63
2023/04/08 07:06:55;;;;;;;11.83;6.90;;;;;;;12.47;45.40;100978.94;4253881;28;20237;-65
2023/04/08 07:09:22;;;;;;;11.67;7.00;;;;;;;13.94;42.04;100989.06;4238524;28;20580;-65
2023/04/08 07:11:48;;;;;;;9.67;6.57;;;;;;;15.06;40.00;101000.28;4232452;28;25697;-65
2023/04/08 07:14:15;;;;;;;11.27;6.80;;;;;;;15.07;38.97;100991.06;4240006;28;20239;-65
2023/04/08 07:16:42;;;;;;;12.53;6.70;;;;;;;15.90;37.42;100997.66;4247789;28;20257;-66
2023/04/08 07:19:09;;;;;;;10.47;6.53;;;;;;;16.53;36.35;100998.00;4223499;28;21108;-67
2023/04/08 07:21:36;;;;;;;9.53;5.90;;;;;;;15.39;38.05;101003.13;4239147;28;20232;-70
2023/04/08 07:24:03;;;;;;;28.17;15.43;;;;;;;17.10;35.79;100991.56;4227113;28;20385;-74
2023/04/08 07:26:30;;;;;;;10.43;6.20;;;;;;;17.00;34.98;100990.91;4236668;28;20607;-72
2023/04/08 07:28:57;;;;;;;8.37;5.93;;;;;;;15.87;36.54;100997.13;4233472;28;20433;-51
2023/04/08 07:31:24;;;;;;;9.30;6.07;;;;;;;16.50;36.04;100995.59;4228907;28;22782;-63
2023/04/08 07:33:51;;;;;;;8.60;6.03;;;;;;;16.82;34.90;100999.31;4260751;28;20331;-62
2023/04/08 07:36:18;;;;;;;8.67;6.00;;;;;;;16.63;34.94;101003.28;4214089;28;20245;-65
2023/04/08 07:38:44;;;;;;;10.17;6.53;;;;;;;18.04;33.13;100996.16;4243426;28;21069;-66
2023/04/08 07:41:11;;;;;;;9.17;6.10;;;;;;;19.11;31.21;100991.53;4227503;28;20247;-64
2023/04/08 07:43:38;;;;;;;8.87;6.23;;;;;;;18.39;32.25;100998.44;4214293;28;20236;-67
2023/04/08 07:46:05;;;;;;;9.70;6.10;;;;;;;19.78;30.67;100992.38;4241804;28;20239;-63
2023/04/08 07:48:33;;;;;;;9.63;6.43;;;;;;;18.50;32.68;101005.38;4239001;28;20247;-62
2023/04/08 07:51:07;;;;;;;8.90;6.10;;;;;;;18.62;32.33;101000.28;4243258;28;21002;-61
2023/04/08 07:53:37;;;;;;;7.97;5.80;;;;;;;19.93;29.76;100997.00;4235608;28;20243;-63
2023/04/08 07:56:10;;;;;;;8.93;6.33;;;;;;;19.99;29.59;101004.44;4255078;28;20293;-62
2023/04/08 07:58:39;;;;;;;9.83;5.90;;;;;;;20.54;29.94;101012.13;4245433;28;20241;-69
2023/04/08 08:01:20;;;;;;;9.40;6.67;;;;;;;20.61;28.97;101004.78;4231407;28;22778;-68
2023/04/08 08:03:48;;;;;;;9.07;5.90;;;;;;;21.03;28.57;100994.69;4239249;28;25372;-65
2023/04/08 08:06:16;;;;;;;9.37;6.37;;;;;;;21.82;27.03;100999.94;4245193;28;21789;-67
2023/04/08 08:08:43;;;;;;;9.90;6.23;;;;;;;21.96;27.61;100998.88;4262523;28;20312;-63
2023/04/08 08:11:09;;;;;;;8.43;6.20;;;;;;;20.14;29.14;101001.59;4250761;28;20577;-65
2023/04/08 08:13:36;;;;;;;10.17;7.07;;;;;;;20.29;29.45;101001.56;4241260;28;22284;-64
2023/04/08 08:16:07;;;;;;;9.63;6.60;;;;;;;18.60;31.76;100997.75;4257680;28;21572;-63
2023/04/08 08:18:35;;;;;;;9.83;6.47;;;;;;;18.47;33.15;101003.00;4231634;28;20435;-67
2023/04/08 08:21:03;;;;;;;11.10;6.23;;;;;;;16.93;35.47;100998.09;4247006;28;20739;-67
2023/04/08 08:23:30;;;;;;;13.97;7.67;;;;;;;15.90;37.95;101003.13;4243203;28;22590;-67
2023/04/08 08:26:01;;;;;;;10.87;7.17;;;;;;;15.75;38.40;100996.56;4225228;28;21727;-69
2023/04/08 08:28:29;;;;;;;13.53;7.30;;;;;;;14.37;40.73;100995.56;4237961;28;22194;-64
2023/04/08 08:30:56;;;;;;;14.57;7.00;;;;;;;14.84;39.65;100993.50;4236446;28;20298;-65
2023/04/08 08:33:24;;;;;;;11.90;6.33;;;;;;;15.41;38.31;100995.63;4225874;28;20237;-74
2023/04/08 08:35:51;;;;;;;12.07;7.20;;;;;;;14.54;38.97;100988.34;4209906;28;20232;-65
2023/04/08 08:38:18;;;;;;;14.60;7.57;;;;;;;14.82;39.00;100999.13;4261855;28;22316;-64
2023/04/08 08:40:44;;;;;;;11.10;7.23;;;;;;;15.07;39.22;100995.66;4245133;28;21363;-64
2023/04/08 08:43:11;;;;;;;10.00;7.37;;;;;;;14.53;40.04;100997.56;4247511;28;20239;-66
2023/04/08 08:45:41;;;;;;;9.97;7.07;;;;;;;14.52;39.29;100992.25;4282264;28;20245;-66
2023/04/08 08:48:08;;;;;;;10.13;7.37;;;;;;;14.45;40.13;100994.78;4250176;28;20238;-67
2023/04/08 08:50:35;;;;;;;13.67;7.40;;;;;;;14.10;41.76;101001.97;4272007;28;20240;-64
2023/04/08 08:53:03;;;;;;;15.37;7.67;;;;;;;14.08;40.67;100991.25;4307676;28;21651;-66
2023/04/08 08:55:32;;;;;;;10.20;7.27;;;;;;;14.24;41.26;100998.69;4286199;28;25439;-67
2023/04/08 08:58:19;;;;;;;12.23;7.07;;;;;;;14.20;40.47;100999.19;4276571;28;20331;-63
2023/04/08 09:00:46;;;;;;;13.33;7.40;;;;;;;13.78;41.69;100984.34;4243466;28;20227;-64
2023/04/08 09:03:21;;;;;;;11.77;7.63;;;;;;;13.30;43.54;100992.63;4284420;28;20773;-64
2023/04/08 09:05:56;;;;;;;12.40;7.53;;;;;;;13.50;42.40;100997.13;4316518;28;20232;-66
2023/04/08 09:08:30;;;;;;;12.40;7.63;;;;;;;13.66;42.35;100991.00;4235923;28;21113;-66
2023/04/08 09:11:16;;;;;;;11.57;7.57;;;;;;;13.15;44.64;100992.25;4328994;28;22998;-66
2023/04/08 09:13:46;;;;;;;12.97;7.83;;;;;;;13.37;42.57;100992.84;4263966;28;21939;-62
2023/04/08 09:16:16;;;;;;;12.10;7.37;;;;;;;12.48;43.41;100995.06;4273847;28;20267;-65
2023/04/08 09:18:44;;;;;;;12.47;7.27;;;;;;;12.30;44.68;100994.97;4278366;28;20331;-67
2023/04/08 09:21:12;;;;;;;13.80;8.13;;;;;;;12.30;45.07;101005.81;4252259;28;21931;-63
2023/04/08 09:23:39;;;;;;;11.00;7.20;;;;;;;12.59;44.73;100995.91;4253095;28;20242;-64
2023/04/08 09:26:10;;;;;;;14.27;7.73;;;;;;;12.20;45.08;101003.13;4228726;28;20227;-66
2023/04/08 09:28:38;;;;;;;13.17;7.67;;;;;;;12.19;45.93;101000.56;4228240;28;20341;-65
2023/04/08 09:31:21;;;;;;;12.97;7.33;;;;;;;12.15;46.24;101007.28;4228419;28;20242;-63
2023/04/08 09:33:50;;;;;;;11.37;7.27;;;;;;;12.41;46.75;101012.13;4262456;28;20250;-65
2023/04/08 09:36:17;;;;;;;14.07;7.40;;;;;;;12.42;45.21;101002.97;4239430;28;20239;-65
2023/04/08 09:38:44;;;;;;;12.53;7.17;;;;;;;12.02;45.49;101007.56;4234890;28;24933;-65
2023/04/08 09:41:13;;;;;;;14.37;7.53;;;;;;;12.43;44.14;101004.66;4258754;28;20309;-66
2023/04/08 09:43:49;;;;;;;10.67;7.13;;;;;;;12.53;44.46;101008.22;4225943;28;20239;-67
2023/04/08 09:46:31;;;;;;;13.53;7.30;;;;;;;12.66;44.64;101002.47;4218782;28;25872;-65
2023/04/08 09:49:06;;;;;;;12.23;7.23;;;;;;;12.86;45.47;100999.69;4271333;28;20310;-68
2023/04/08 09:51:42;;;;;;;15.57;8.07;;;;;;;12.94;44.87;100999.81;4269622;28;21410;-64
2023/04/08 09:54:12;;;;;;;11.13;7.17;;;;;;;12.83;43.33;101006.28;4321638;28;20235;-65
2023/04/08 09:57:08;;;;;;;9.53;6.47;;;;;;;12.82;43.80;101002.72;4248001;28;20232;-64
2023/04/08 09:59:36;;;;;;;11.97;7.33;;;;;;;12.35;45.00;100997.25;4271649;28;20277;-65
2023/04/08 10:02:06;;;;;;;11.03;6.50;;;;;;;12.45;45.31;100998.09;4246481;28;25762;-64
2023/04/08 10:04:37;;;;;;;11.23;6.90;;;;;;;12.47;45.48;100998.78;4261537;28;23549;-64
2023/04/08 10:07:06;;;;;;;10.53;6.87;;;;;;;12.83;45.18;100977.28;4229346;28;20251;-66
2023/04/08 10:09:33;;;;;;;13.10;6.77;;;;;;;12.83;44.53;100987.25;4230418;28;21832;-64
2023/04/08 10:12:01;;;;;;;11.70;7.07;;;;;;;12.87;45.39;100988.69;4261396;28;20255;-66
2023/04/08 10:14:29;;;;;;;10.47;6.90;;;;;;;12.84;45.28;100984.38;4216209;28;20982;-64
2023/04/08 10:17:25;;;;;;;10.03;6.97;;;;;;;12.72;44.47;100987.47;4295230;28;20310;-65
2023/04/08 10:19:52;;;;;;;10.97;7.03;;;;;;;12.81;45.32;100981.97;4280551;28;22871;-65
2023/04/08 10:22:46;;;;;;;11.03;7.13;;;;;;;13.04;43.82;100983.44;4291024;28;20999;-67
2023/04/08 10:25:16;;;;;;;10.17;6.60;;;;;;;12.90;45.13;100977.50;4214222;28;20262;-66
2023/04/08 10:27:43;;;;;;;10.87;6.70;;;;;;;13.12;43.84;100980.84;4239269;28;23981;-64
2023/04/08 10:30:30;;;;;;;11.87;6.97;;;;;;;12.77;44.59;100987.84;4224114;28;20260;-65
2023/04/08 10:33:00;;;;;;;10.50;7.13;;;;;;;12.65;45.20;100987.19;4260858;28;20304;-65
2023/04/08 10:35:33;;;;;;;14.07;7.57;;;;;;;12.84;44.49;100984.38;4225425;28;20295;-63
2023/04/08 10:38:00;;;;;;;13.10;7.50;;;;;;;12.74;44.45;100970.00;4238701;28;20885;-66
2023/04/08 10:40:37;;;;;;;12.10;6.93;;;;;;;13.30;46.00;100968.16;4224544;28;21984;-66
2023/04/08 10:43:04;;;;;;;10.23;6.53;;;;;;;13.60;43.61;100981.59;4262737;28;20243;-66
2023/04/08 10:45:32;;;;;;;10.27;6.33;;;;;;;13.42;42.54;100965.25;4282626;28;20366;-66
2023/04/08 10:48:24;;;;;;;9.90;6.37;;;;;;;13.55;43.21;100973.91;4238059;28;20232;-65
2023/04/08 10:51:04;;;;;;;8.90;6.40;;;;;;;13.57;43.09;100971.88;4248662;28;20294;-66
2023/04/08 10:53:32;;;;;;;8.97;5.80;;;;;;;13.20;42.59;100972.78;4219203;28;20361;-65
2023/04/08 10:56:11;;;;;;;10.73;6.57;;;;;;;13.05;42.64;100967.00;4239000;28;20245;-65
2023/04/08 10:58:53;;;;;;;9.63;6.17;;;;;;;12.88;42.64;100960.50;4226601;28;23307;-67
2023/04/08 11:01:20;;;;;;;8.63;6.13;;;;;;;12.79;43.08;100956.81;4233572;28;22259;-66
2023/04/08 11:03:47;;;;;;;11.97;6.77;;;;;;;12.98;45.11;100965.91;4212832;28;20357;-65
2023/04/08 11:06:16;;;;;;;10.07;6.60;;;;;;;13.05;44.33;100956.13;4228860;28;20248;-65
2023/04/08 11:08:43;;;;;;;9.77;5.47;;;;;;;13.12;42.61;100962.69;4247280;28;21023;-64
2023/04/08 11:11:10;;;;;;;8.63;6.10;;;;;;;13.23;42.61;100955.31;4250139;28;20239;-67
2023/04/08 11:13:42;;;;;;;11.57;6.93;;;;;;;13.15;42.53;100956.09;4255160;28;20986;-67
2023/04/08 11:16:19;;;;;;;10.50;6.20;;;;;;;13.21;41.90;100960.06;4240732;28;20238;-66
2023/04/08 11:18:47;;;;;;;8.23;5.70;;;;;;;13.49;42.08;100960.06;4211798;28;20665;-66
2023/04/08 11:21:14;;;;;;;9.90;6.50;;;;;;;13.61;41.54;100954.25;4243767;28;20236;-68
2023/04/08 11:23:41;;;;;;;10.50;6.43;;;;;;;13.47;41.17;100958.34;4297796;28;20239;-65
2023/04/08 11:26:10;;;;;;;9.03;6.20;;;;;;;13.13;41.70;100955.38;4372510;28;22348;-65